Time;durP1;ratioP1;P1;durP2;ratioP2;P2;SDS_P1;SDS_P2;PMS_P1;PMS_P2;Temp;Humidity;BMP_temperature;BMP_pressure;BME280_temperature;BME280_humidity;BME280_pressure;Samples;Min_cycle;Max_cycle;Signal;HPM_P1;HPM_P2
2022/11/08 00:02:38;;;;;;;32.05;22.40;;;;;;;9.40;100.00;93540.59;5112124;28;20062;-76
2022/11/08 00:16:04;;;;;;;;;;;;;;;9.44;100.00;93554.59;5111789;28;20054;-76
2022/11/08 00:18:30;;;;;;;31.70;21.88;;;;;;;9.39;100.00;93540.78;5111073;28;19919;-76
2022/11/08 00:21:01;;;;;;;36.65;22.08;;;;;;;9.35;100.00;93542.94;5111241;28;20187;-76
2022/11/08 00:23:27;;;;;;;32.50;21.00;;;;;;;9.46;100.00;93547.53;5101105;28;20121;-76
2022/11/08 00:25:54;;;;;;;31.08;20.77;;;;;;;9.43;100.00;93542.78;5107856;28;20048;-76
2022/11/08 00:28:22;;;;;;;32.38;21.30;;;;;;;9.49;100.00;93546.31;5111792;28;20124;-76
2022/11/08 00:30:49;;;;;;;29.10;20.23;;;;;;;9.54;100.00;93546.53;5111411;28;20104;-76
2022/11/08 00:33:16;;;;;;;30.38;21.58;;;;;;;9.55;100.00;93547.31;5111096;28;20459;-76
2022/11/08 00:35:42;;;;;;;31.77;19.73;;;;;;;9.52;100.00;93540.00;5110440;28;20047;-75
2022/11/08 00:38:09;;;;;;;30.48;19.48;;;;;;;9.53;100.00;93544.19;5111021;28;20585;-76
2022/11/08 00:40:36;;;;;;;30.83;19.83;;;;;;;9.49;100.00;93541.19;5111399;28;20051;-76
2022/11/08 00:43:03;;;;;;;29.92;20.63;;;;;;;9.44;100.00;93536.66;5111530;28;20047;-76
2022/11/08 00:45:31;;;;;;;29.15;19.77;;;;;;;9.51;100.00;93538.44;5111277;28;20116;-76
2022/11/08 00:47:58;;;;;;;28.67;19.50;;;;;;;9.56;100.00;93549.69;5110791;28;20047;-75
2022/11/08 00:50:24;;;;;;;29.90;20.30;;;;;;;9.55;100.00;93543.00;5110789;28;20059;-75
2022/11/08 00:52:51;;;;;;;29.00;19.45;;;;;;;9.52;100.00;93535.69;5111671;28;20051;-76
2022/11/08 00:55:18;;;;;;;31.77;20.27;;;;;;;9.46;100.00;93532.13;5082318;28;20574;-74
2022/11/08 00:57:44;;;;;;;27.88;18.25;;;;;;;9.48;100.00;93537.06;5111070;28;20047;-75
2022/11/08 01:00:13;;;;;;;28.60;18.95;;;;;;;9.49;100.00;93536.88;5111081;28;20052;-75
2022/11/08 01:02:41;;;;;;;29.92;19.95;;;;;;;9.43;100.00;93536.84;5110954;28;20055;-75
2022/11/08 01:05:08;;;;;;;28.83;19.92;;;;;;;9.42;100.00;93543.75;5111006;28;20128;-75
2022/11/08 01:07:37;;;;;;;26.73;19.65;;;;;;;9.42;100.00;93541.19;5111019;28;20074;-75
2022/11/08 01:10:04;;;;;;;30.27;20.33;;;;;;;9.43;100.00;93545.34;5111036;28;20472;-75
2022/11/08 01:12:31;;;;;;;28.88;19.88;;;;;;;9.44;100.00;93546.13;5110316;28;20092;-75
2022/11/08 01:14:57;;;;;;;27.40;19.58;;;;;;;9.44;100.00;93544.34;5110952;28;20051;-75
2022/11/08 01:17:24;;;;;;;27.58;19.40;;;;;;;9.46;100.00;93544.97;5110750;28;20047;-75
2022/11/08 01:19:52;;;;;;;27.45;19.60;;;;;;;9.47;100.00;93548.28;5110528;28;20051;-76
2022/11/08 01:22:19;;;;;;;28.42;19.20;;;;;;;9.45;100.00;93545.16;5109972;28;20047;-75
2022/11/08 01:24:46;;;;;;;27.20;18.45;;;;;;;9.48;100.00;93545.53;5110696;28;20518;-75
2022/11/08 01:27:12;;;;;;;28.60;18.88;;;;;;;9.45;100.00;93545.91;5110818;28;20047;-75
2022/11/08 01:29:39;;;;;;;27.85;19.05;;;;;;;9.47;100.00;93543.97;5110605;28;20048;-76
2022/11/08 01:32:06;;;;;;;28.33;19.50;;;;;;;9.46;100.00;93539.03;5110230;28;20550;-77
2022/11/08 01:34:33;;;;;;;27.13;18.92;;;;;;;9.48;100.00;93547.31;5110182;28;20043;-74
2022/11/08 01:37:01;;;;;;;29.48;19.92;;;;;;;9.48;100.00;93544.75;5110610;28;20112;-76
2022/11/08 01:39:31;;;;;;;30.05;19.75;;;;;;;9.49;100.00;93544.56;5110356;27;20044;-75
2022/11/08 01:41:58;;;;;;;28.70;20.42;;;;;;;9.49;100.00;93536.88;5110204;28;20050;-75
2022/11/08 01:44:25;;;;;;;30.58;19.58;;;;;;;9.40;100.00;93527.00;5110301;28;20096;-75
2022/11/08 01:46:51;;;;;;;29.63;20.08;;;;;;;9.47;100.00;93545.72;5110131;28;20435;-75
2022/11/08 01:49:43;;;;;;;30.60;20.77;;;;;;;9.53;100.00;93546.75;5110087;28;20047;-75
2022/11/08 01:52:23;;;;;;;26.77;20.05;;;;;;;9.51;100.00;93538.44;5109915;28;20047;-75
2022/11/08 01:55:00;;;;;;;34.13;20.15;;;;;;;9.53;100.00;93539.06;5084004;28;20104;-75
2022/11/08 01:57:33;;;;;;;29.60;20.23;;;;;;;9.52;100.00;93535.69;5082354;28;20055;-75
2022/11/08 02:00:04;;;;;;;31.15;20.58;;;;;;;9.49;100.00;93534.28;5109972;28;20054;-74
2022/11/08 02:02:33;;;;;;;27.55;18.83;;;;;;;9.43;100.00;93537.63;5110222;28;20171;-74
2022/11/08 02:05:00;;;;;;;31.20;20.27;;;;;;;9.47;100.00;93541.41;5109817;28;20049;-74
2022/11/08 02:07:30;;;;;;;27.77;18.45;;;;;;;9.47;100.00;93538.84;5109825;28;20044;-74
2022/11/08 02:09:57;;;;;;;26.27;18.30;;;;;;;9.40;100.00;93538.00;5110008;28;20043;-74
2022/11/08 02:12:26;;;;;;;31.73;20.75;;;;;;;9.38;100.00;93541.75;5109637;28;20427;-74
2022/11/08 02:14:53;;;;;;;34.20;24.60;;;;;;;9.43;100.00;93545.34;5109773;28;20056;-74
2022/11/08 02:17:20;;;;;;;31.35;21.65;;;;;;;9.44;100.00;93541.78;5109914;28;20043;-74
2022/11/08 02:19:49;;;;;;;33.33;21.88;;;;;;;9.35;100.00;93542.94;5109958;28;20455;-74
2022/11/08 02:22:25;;;;;;;33.30;22.63;;;;;;;9.15;100.00;93537.75;5109562;28;20047;-74
2022/11/08 02:24:54;;;;;;;38.95;26.88;;;;;;;9.02;100.00;93534.16;5082401;28;20101;-74
2022/11/08 02:27:21;;;;;;;42.53;27.95;;;;;;;9.05;100.00;93540.69;5078754;28;20052;-74
2022/11/08 02:29:52;;;;;;;42.75;27.48;;;;;;;9.00;100.00;93545.59;5072169;28;20052;-74
2022/11/08 02:35:20;;;;;;;42.08;28.38;;;;;;;9.02;100.00;93539.28;5070911;28;20518;-75
2022/11/08 02:37:47;;;;;;;43.50;28.20;;;;;;;9.04;100.00;93539.91;5072802;28;20056;-74
2022/11/08 02:40:16;;;;;;;44.20;28.48;;;;;;;9.05;100.00;93535.56;5072860;28;20091;-75
2022/11/08 02:42:42;;;;;;;45.40;29.73;;;;;;;9.16;100.00;93544.47;5072826;28;20048;-74
2022/11/08 02:45:09;;;;;;;40.30;27.25;;;;;;;9.21;100.00;93542.91;5071963;28;20048;-75
2022/11/08 02:47:36;;;;;;;40.67;27.55;;;;;;;9.25;100.00;93551.00;5071403;28;20145;-74
2022/11/08 02:50:03;;;;;;;43.65;27.35;;;;;;;9.28;100.00;93542.13;5072605;28;20094;-74
2022/11/08 02:52:30;;;;;;;43.15;26.15;;;;;;;9.31;100.00;93542.53;5072661;28;20470;-74
2022/11/08 02:54:56;;;;;;;39.47;26.48;;;;;;;9.34;100.00;93547.28;5074862;28;20098;-74
2022/11/08 02:57:25;;;;;;;42.30;25.88;;;;;;;9.36;100.00;93545.31;5072548;28;20101;-74
2022/11/08 02:59:51;;;;;;;42.65;27.30;;;;;;;9.38;100.00;93544.31;5072271;28;20048;-74
2022/11/08 03:02:18;;;;;;;40.85;25.60;;;;;;;9.38;100.00;93549.44;5071994;28;20078;-75
2022/11/08 03:04:45;;;;;;;36.30;23.95;;;;;;;9.41;100.00;93546.50;5072256;28;20064;-76
2022/11/08 03:07:11;;;;;;;38.10;23.17;;;;;;;9.42;100.00;93541.19;5072296;28;20440;-75
2022/11/08 03:09:38;;;;;;;39.85;23.52;;;;;;;9.46;100.00;93552.66;5071772;28;20044;-75
2022/11/08 03:12:05;;;;;;;36.60;23.38;;;;;;;9.46;100.00;93551.84;5071348;28;20040;-75
2022/11/08 03:14:33;;;;;;;37.42;23.75;;;;;;;9.44;100.00;93554.59;5072097;28;20044;-75
2022/11/08 03:17:00;;;;;;;39.67;24.77;;;;;;;9.46;100.00;93559.53;5072116;28;20078;-75
2022/11/08 03:19:27;;;;;;;38.53;23.35;;;;;;;9.49;100.00;93559.94;5071634;28;20104;-75
2022/11/08 03:21:53;;;;;;;31.63;22.20;;;;;;;9.48;100.00;93555.81;5071546;28;20096;-75
2022/11/08 03:24:20;;;;;;;35.67;21.13;;;;;;;9.44;100.00;93552.03;5071942;28;20048;-75
2022/11/08 03:26:47;;;;;;;33.25;20.58;;;;;;;9.46;100.00;93555.22;5071436;28;20555;-75
2022/11/08 03:29:14;;;;;;;31.35;20.75;;;;;;;9.45;100.00;93556.19;5071602;28;20102;-75
2022/11/08 03:31:42;;;;;;;29.30;19.70;;;;;;;9.47;100.00;93556.00;5071434;28;20094;-75
2022/11/08 03:34:09;;;;;;;31.90;19.98;;;;;;;9.46;100.00;93560.34;5071594;28;20044;-75
2022/11/08 03:36:36;;;;;;;28.83;19.73;;;;;;;9.47;100.00;93563.69;5071824;28;20041;-75
2022/11/08 03:39:02;;;;;;;29.50;19.80;;;;;;;9.42;100.00;93558.34;5071750;28;20079;-75
2022/11/08 03:41:29;;;;;;;28.38;19.33;;;;;;;9.43;100.00;93558.16;5071314;28;20102;-75
2022/11/08 03:43:56;;;;;;;32.60;20.20;;;;;;;9.43;100.00;93553.03;5070382;28;20110;-75
2022/11/08 03:46:23;;;;;;;31.45;20.10;;;;;;;9.42;100.00;93556.56;5071141;28;20041;-75
2022/11/08 03:48:51;;;;;;;29.15;20.05;;;;;;;9.43;100.00;93554.78;5071419;28;20120;-75
2022/11/08 03:51:18;;;;;;;28.80;20.33;;;;;;;9.34;100.00;93543.91;5071271;28;20048;-75
2022/11/08 03:53:44;;;;;;;33.88;20.40;;;;;;;9.43;100.00;93549.66;5074074;28;20051;-75
2022/11/08 03:56:11;;;;;;;32.20;20.35;;;;;;;9.40;100.00;93547.50;5070983;28;20868;-74
2022/11/08 03:58:38;;;;;;;32.45;21.52;;;;;;;9.47;100.00;93554.22;5071610;28;20044;-75
2022/11/08 04:01:06;;;;;;;34.65;22.98;;;;;;;9.47;100.00;93556.00;5071548;28;20052;-75
2022/11/08 04:03:33;;;;;;;34.63;22.67;;;;;;;9.48;100.00;93549.88;5071283;28;20074;-75
2022/11/08 04:06:02;;;;;;;39.03;24.13;;;;;;;9.44;100.00;93546.91;5071104;28;20045;-75
2022/11/08 04:08:29;;;;;;;38.17;24.30;;;;;;;9.43;100.00;93542.78;5070841;28;20489;-75
2022/11/08 04:10:56;;;;;;;37.55;24.85;;;;;;;9.50;100.00;93553.06;5071225;28;20448;-76
2022/11/08 04:16:08;;;;;;;37.70;24.48;;;;;;;9.53;100.00;93557.00;5071051;28;20055;-75
2022/11/08 04:21:21;;;;;;;36.10;24.38;;;;;;;9.57;100.00;93555.59;5070177;28;20043;-75
2022/11/08 04:23:49;;;;;;;33.97;23.27;;;;;;;9.43;100.00;93531.72;5070497;28;20075;-74
2022/11/08 04:26:16;;;;;;;34.03;22.98;;;;;;;9.50;100.00;93547.91;5073675;28;20044;-74
2022/11/08 04:28:43;;;;;;;47.88;26.55;;;;;;;9.51;100.00;93549.50;5070934;28;20052;-75
2022/11/08 04:31:12;;;;;;;51.25;29.73;;;;;;;9.49;100.00;93547.13;5070532;28;20102;-74
2022/11/08 04:33:39;;;;;;;65.13;32.95;;;;;;;9.46;100.00;93547.53;5070331;28;20127;-74
2022/11/08 04:36:10;;;;;;;55.22;31.80;;;;;;;9.45;100.00;93545.16;5070560;28;20048;-74
2022/11/08 04:38:38;;;;;;;51.45;28.60;;;;;;;9.42;100.00;93545.53;5070208;28;20056;-74
2022/11/08 04:41:07;;;;;;;56.90;30.85;;;;;;;9.45;100.00;93540.00;5070307;28;20048;-74
2022/11/08 04:43:34;;;;;;;61.10;40.60;;;;;;;9.47;100.00;93538.03;5070504;28;20044;-74
2022/11/08 04:46:02;;;;;;;57.45;37.28;;;;;;;9.47;100.00;93538.84;5069658;28;20094;-74
2022/11/08 04:48:29;;;;;;;47.97;31.27;;;;;;;9.45;100.00;93540.00;5069886;28;20037;-74
2022/11/08 04:50:56;;;;;;;53.33;32.33;;;;;;;9.41;100.00;93537.06;5068772;28;20052;-74
2022/11/08 04:53:22;;;;;;;46.20;29.38;;;;;;;9.39;100.00;93530.53;5069145;28;20040;-74
2022/11/08 04:55:50;;;;;;;53.92;31.65;;;;;;;9.39;100.00;93535.66;5069704;28;20053;-74
2022/11/08 04:58:17;;;;;;;55.05;32.03;;;;;;;9.39;100.00;93538.22;5069911;28;20471;-74
2022/11/08 05:00:44;;;;;;;98.10;53.88;;;;;;;9.27;100.00;93548.25;5070057;28;20049;-75
2022/11/08 05:03:11;;;;;;;53.38;31.65;;;;;;;8.95;100.00;93556.41;5070221;28;20056;-76
2022/11/08 05:05:37;;;;;;;86.55;49.03;;;;;;;8.88;100.00;93542.78;5069499;28;20566;-75
2022/11/08 05:08:05;;;;;;;59.75;37.28;;;;;;;8.91;100.00;93545.75;5069837;28;20052;-75
2022/11/08 05:10:32;;;;;;;49.10;30.90;;;;;;;8.92;100.00;93541.41;5069911;28;20040;-74
2022/11/08 05:13:00;;;;;;;47.10;30.52;;;;;;;8.98;100.00;93543.22;5086644;28;20565;-73
2022/11/08 05:15:26;;;;;;;74.43;47.75;;;;;;;8.80;100.00;93551.44;5110660;28;20107;-76
2022/11/08 05:17:53;;;;;;;56.28;36.47;;;;;;;8.77;100.00;93546.66;5110929;28;20439;-76
2022/11/08 05:25:48;;;;;;;53.72;34.88;;;;;;;8.73;100.00;93553.16;5110253;28;20054;-76
2022/11/08 05:28:16;;;;;;;48.30;32.58;;;;;;;8.69;100.00;93545.06;5110351;28;20570;-76
2022/11/08 05:30:43;;;;;;;51.47;33.25;;;;;;;8.75;100.00;93546.84;5110399;28;20459;-75
2022/11/08 05:33:12;;;;;;;53.22;34.75;;;;;;;8.86;100.00;93552.44;5109938;28;20043;-76
2022/11/08 05:35:39;;;;;;;51.72;34.25;;;;;;;8.97;100.00;93557.00;5110560;28;20047;-75
2022/11/08 05:38:06;;;;;;;54.85;33.60;;;;;;;9.01;100.00;93557.41;5110204;28;20130;-75
2022/11/08 05:40:33;;;;;;;54.90;34.35;;;;;;;9.10;100.00;93556.28;5110913;28;20052;-76
2022/11/08 05:43:00;;;;;;;50.78;33.75;;;;;;;9.19;100.00;93562.81;5110521;28;20120;-76
2022/11/08 05:45:28;;;;;;;48.38;32.15;;;;;;;9.31;100.00;93572.53;5110279;28;20112;-76
2022/11/08 05:47:56;;;;;;;53.72;34.55;;;;;;;9.39;100.00;93581.81;5110147;28;20510;-76
2022/11/08 05:50:23;;;;;;;57.17;35.58;;;;;;;9.35;100.00;93571.94;5110426;28;20048;-76
2022/11/08 05:52:51;;;;;;;52.97;33.92;;;;;;;9.45;100.00;93578.47;5110415;28;20088;-76
2022/11/08 05:55:17;;;;;;;54.47;34.85;;;;;;;9.56;100.00;93572.78;5081352;28;20510;-75
2022/11/08 05:57:44;;;;;;;56.13;36.35;;;;;;;9.66;100.00;93581.88;5110370;28;20043;-75
2022/11/08 06:00:12;;;;;;;55.35;36.67;;;;;;;9.68;100.00;93582.47;5109716;28;20059;-75
2022/11/08 06:02:40;;;;;;;54.85;34.83;;;;;;;9.75;100.00;93591.78;5110258;28;20044;-75
2022/11/08 06:05:08;;;;;;;57.30;35.72;;;;;;;9.85;100.00;93593.16;5109274;28;20055;-75
2022/11/08 06:07:35;;;;;;;55.78;34.17;;;;;;;9.93;100.00;93600.66;5108869;28;20051;-75
2022/11/08 06:10:03;;;;;;;55.85;32.97;;;;;;;9.97;100.00;93598.50;5110225;28;20044;-75
2022/11/08 06:12:30;;;;;;;56.28;34.35;;;;;;;10.09;100.00;93611.56;5109997;28;20076;-75
2022/11/08 06:14:57;;;;;;;47.88;32.38;;;;;;;10.18;100.00;93610.34;5089712;28;20102;-76
2022/11/08 06:17:24;;;;;;;55.90;33.50;;;;;;;10.23;100.00;93617.50;5095690;28;20093;-75
2022/11/08 06:19:52;;;;;;;52.42;31.65;;;;;;;10.07;100.00;93596.34;5080561;28;20055;-75
2022/11/08 06:22:18;;;;;;;51.03;31.10;;;;;;;10.10;100.00;93608.00;5109738;28;20175;-75
2022/11/08 06:24:45;;;;;;;52.40;32.08;;;;;;;10.07;100.00;93600.69;5109865;28;20048;-75
2022/11/08 06:27:13;;;;;;;50.42;29.92;;;;;;;10.19;100.00;93611.16;5110023;28;20062;-75
2022/11/08 06:29:41;;;;;;;60.50;35.97;;;;;;;10.28;100.00;93609.97;5109922;28;20047;-75
2022/11/08 06:32:08;;;;;;;62.08;32.17;;;;;;;10.37;100.00;93621.63;5109625;28;20051;-76
2022/11/08 06:34:34;;;;;;;58.60;31.20;;;;;;;10.43;100.00;93623.41;5109809;28;20104;-76
2022/11/08 06:37:03;;;;;;;48.80;31.40;;;;;;;10.51;100.00;93616.53;5109588;28;20554;-76
2022/11/08 06:39:30;;;;;;;50.78;30.50;;;;;;;10.71;100.00;93626.78;5109318;28;20059;-75
2022/11/08 06:41:57;;;;;;;53.47;32.08;;;;;;;10.80;100.00;93633.25;5081640;28;20051;-76
2022/11/08 06:44:24;;;;;;;50.55;32.35;;;;;;;10.89;100.00;93631.31;5109546;28;20752;-76
2022/11/08 06:46:50;;;;;;;56.75;33.20;;;;;;;10.98;100.00;93637.00;5109191;28;20039;-76
2022/11/08 06:49:17;;;;;;;53.45;31.73;;;;;;;11.11;100.00;93636.16;5109801;28;20055;-75
2022/11/08 06:51:44;;;;;;;54.85;33.10;;;;;;;11.13;100.00;93623.13;5109203;28;20060;-76
2022/11/08 06:54:12;;;;;;;49.13;31.33;;;;;;;11.31;100.00;93638.72;5094763;28;20451;-76
2022/11/08 06:56:39;;;;;;;54.63;31.27;;;;;;;11.45;100.00;93639.44;5096573;28;20059;-76
2022/11/08 06:59:05;;;;;;;54.38;31.70;;;;;;;11.61;100.00;93650.25;5109453;28;20489;-76
2022/11/08 07:01:32;;;;;;;60.83;31.60;;;;;;;11.68;100.00;93650.22;5109275;28;20055;-76
2022/11/08 07:03:59;;;;;;;54.53;33.15;;;;;;;11.79;100.00;93653.94;5109399;28;20092;-76
2022/11/08 07:06:26;;;;;;;57.13;32.42;;;;;;;11.87;100.00;93649.34;5109031;28;20055;-76
2022/11/08 07:08:52;;;;;;;57.40;33.70;;;;;;;11.90;100.00;93637.84;5109469;28;20455;-76
2022/11/08 07:11:20;;;;;;;53.83;30.95;;;;;;;11.88;100.00;93624.38;5109251;28;20052;-76
2022/11/08 07:13:47;;;;;;;56.42;31.52;;;;;;;12.12;100.00;93658.13;5109232;28;20052;-76
2022/11/08 07:16:14;;;;;;;57.28;28.80;;;;;;;11.99;100.00;93646.13;5109300;28;20117;-76
2022/11/08 07:18:41;;;;;;;57.67;28.98;;;;;;;11.74;100.00;93647.63;5098934;28;20048;-75
2022/11/08 07:21:08;;;;;;;57.33;30.00;;;;;;;11.65;100.00;93654.00;5112139;28;20160;-75
2022/11/08 07:23:34;;;;;;;58.33;31.95;;;;;;;11.70;100.00;93654.16;5112828;28;20493;-75
2022/11/08 07:26:02;;;;;;;52.72;31.70;;;;;;;11.76;100.00;93650.00;5112401;28;20100;-75
2022/11/08 07:28:31;;;;;;;56.28;32.47;;;;;;;11.57;100.00;93641.38;5112738;28;20055;-76
2022/11/08 07:31:00;;;;;;;62.08;36.13;;;;;;;11.53;100.00;93650.50;5112499;28;20105;-75
2022/11/08 07:33:27;;;;;;;63.78;34.22;;;;;;;11.02;100.00;93645.88;5112792;28;20055;-75
2022/11/08 07:35:54;;;;;;;77.03;39.80;;;;;;;11.27;100.00;93644.44;5112637;28;20653;-75
2022/11/08 07:38:21;;;;;;;58.13;32.03;;;;;;;11.10;100.00;93639.75;5112882;28;20097;-75
2022/11/08 07:40:48;;;;;;;59.92;34.13;;;;;;;11.08;100.00;93646.88;5112584;27;20394;-75
2022/11/08 07:43:15;;;;;;;60.70;34.65;;;;;;;11.05;100.00;93644.69;5112169;27;20047;-75
2022/11/08 07:45:43;;;;;;;70.53;35.95;;;;;;;10.95;100.00;93632.25;5112279;28;20577;-75
2022/11/08 07:48:13;;;;;;;55.60;33.17;;;;;;;11.09;100.00;93640.72;5112247;28;20056;-75
2022/11/08 07:50:40;;;;;;;56.80;32.53;;;;;;;11.12;100.00;93635.19;5112470;28;20561;-75
2022/11/08 07:53:07;;;;;;;55.05;32.35;;;;;;;11.19;100.00;93633.41;5112456;28;20467;-75
2022/11/08 07:55:36;;;;;;;60.90;32.20;;;;;;;11.24;100.00;93622.50;5083503;28;20097;-75
2022/11/08 07:58:03;;;;;;;57.97;31.60;;;;;;;11.57;100.00;93636.22;5112581;28;20104;-75
2022/11/08 08:00:30;;;;;;;46.53;28.48;;;;;;;11.57;100.00;93631.09;5112269;27;20683;-76
2022/11/08 08:02:59;;;;;;;55.38;30.05;;;;;;;11.62;100.00;93623.53;5112177;27;20051;-76
2022/11/08 08:05:26;;;;;;;53.67;30.23;;;;;;;11.67;100.00;93643.50;5112359;28;20625;-76
2022/11/08 08:07:56;;;;;;;53.28;31.00;;;;;;;11.70;100.00;93650.78;5112380;28;20108;-76
2022/11/08 08:10:23;;;;;;;57.33;31.52;;;;;;;11.71;100.00;93636.97;5112100;28;20492;-76
2022/11/08 08:12:49;;;;;;;51.40;30.45;;;;;;;11.69;100.00;93644.06;5093868;28;20101;-75
2022/11/08 08:15:16;;;;;;;57.40;30.38;;;;;;;11.71;100.00;93640.31;5112249;28;20052;-75
2022/11/08 08:17:43;;;;;;;52.08;29.55;;;;;;;11.89;100.00;93642.19;5106575;28;20097;-75
2022/11/08 08:20:12;;;;;;;44.95;28.17;;;;;;;11.97;100.00;93645.50;5102844;28;20508;-75
2022/11/08 08:22:43;;;;;;;45.97;28.08;;;;;;;12.05;100.00;93641.94;5111465;27;20070;-75
2022/11/08 08:25:10;;;;;;;51.05;31.27;;;;;;;11.97;100.00;93643.75;5111816;28;20093;-76
2022/11/08 08:27:37;;;;;;;50.13;30.05;;;;;;;12.20;100.00;93645.00;5111559;28;20660;-75
2022/11/08 08:30:05;;;;;;;44.60;28.08;;;;;;;12.36;100.00;93646.28;5110955;28;20939;-76
2022/11/08 08:32:31;;;;;;;47.63;26.80;;;;;;;12.41;100.00;93648.25;5110926;28;20043;-75
2022/11/08 08:34:58;;;;;;;46.85;26.65;;;;;;;12.46;100.00;93647.59;5111860;27;20040;-75
2022/11/08 08:37:26;;;;;;;40.10;26.48;;;;;;;12.30;100.00;93657.44;5111815;28;20121;-75
2022/11/08 08:39:53;;;;;;;41.65;27.00;;;;;;;12.39;100.00;93650.22;5106099;28;20600;-75
2022/11/08 08:42:20;;;;;;;45.10;26.52;;;;;;;12.47;100.00;93657.72;5080967;28;20469;-76
2022/11/08 08:44:46;;;;;;;46.88;28.30;;;;;;;12.37;100.00;93622.09;5110028;28;20112;-75
2022/11/08 08:47:13;;;;;;;44.08;27.35;;;;;;;12.40;100.00;93649.22;5111339;28;20474;-75
2022/11/08 08:49:40;;;;;;;43.47;27.45;;;;;;;12.22;100.00;93598.47;5106169;28;20089;-75
2022/11/08 08:52:06;;;;;;;47.90;27.77;;;;;;;12.77;100.00;93654.47;5070486;28;20044;-75
2022/11/08 08:54:34;;;;;;;41.47;26.23;;;;;;;12.84;100.00;93651.84;5070503;28;20045;-75
2022/11/08 08:57:01;;;;;;;43.65;26.38;;;;;;;13.04;100.00;93656.03;5069678;28;20057;-75
2022/11/08 08:59:28;;;;;;;39.85;25.52;;;;;;;13.11;100.00;93664.50;5069909;28;20049;-75
2022/11/08 09:01:55;;;;;;;41.67;24.33;;;;;;;13.23;100.00;93655.03;5080407;28;20055;-76
2022/11/08 09:04:22;;;;;;;32.20;22.30;;;;;;;13.29;100.00;93663.69;5110456;28;20100;-75
2022/11/08 09:06:49;;;;;;;36.33;21.25;;;;;;;12.78;100.00;93661.22;5081324;28;20048;-75
2022/11/08 09:09:15;;;;;;;32.63;21.33;;;;;;;12.89;100.00;93664.09;5111108;28;20052;-75
2022/11/08 09:11:43;;;;;;;31.67;19.15;;;;;;;12.95;100.00;93656.31;5111024;28;20047;-75
2022/11/08 09:14:10;;;;;;;33.78;20.30;;;;;;;13.10;100.00;93661.13;5110879;28;20063;-75
2022/11/08 09:16:37;;;;;;;32.40;20.48;;;;;;;12.93;100.00;93660.09;5110688;28;20055;-75
2022/11/08 09:19:05;;;;;;;31.83;19.45;;;;;;;13.13;100.00;93657.31;5082354;28;20093;-74
2022/11/08 09:21:32;;;;;;;29.98;18.90;;;;;;;13.16;100.00;93669.00;5085700;28;20049;-74
2022/11/08 09:23:58;;;;;;;32.25;20.52;;;;;;;13.33;100.00;93661.50;5103250;28;20105;-75
2022/11/08 09:26:25;;;;;;;32.80;21.08;;;;;;;13.43;100.00;93676.47;5101269;28;20443;-74
2022/11/08 09:28:53;;;;;;;31.02;18.80;;;;;;;13.36;100.00;93672.19;5110621;28;20059;-74
2022/11/08 09:31:20;;;;;;;34.10;19.08;;;;;;;13.57;100.00;93665.00;5110323;28;20097;-75
2022/11/08 09:33:50;;;;;;;31.48;17.98;;;;;;;13.40;100.00;93672.53;5110079;28;20059;-75
2022/11/08 09:36:23;;;;;;;28.33;17.92;;;;;;;13.17;100.00;93662.84;5075307;28;20052;-75
2022/11/08 09:38:49;;;;;;;30.77;19.33;;;;;;;12.91;100.00;93664.69;5079490;28;20489;-75
2022/11/08 09:41:40;;;;;;;28.30;18.75;;;;;;;12.48;100.00;93651.56;5109666;28;20047;-75
2022/11/08 09:44:22;;;;;;;28.95;18.77;;;;;;;12.70;100.00;93651.97;5110255;28;20136;-74
2022/11/08 09:46:52;;;;;;;34.03;18.63;;;;;;;12.91;100.00;93654.38;5109651;28;20052;-75
2022/11/08 09:49:24;;;;;;;24.92;17.73;;;;;;;13.04;100.00;93643.13;5110355;28;20048;-75
2022/11/08 09:51:51;;;;;;;26.55;18.10;;;;;;;12.92;100.00;93655.94;5110152;28;20043;-75
2022/11/08 09:54:23;;;;;;;26.35;17.98;;;;;;;13.09;100.00;93646.66;5093465;28;20052;-74
2022/11/08 09:56:53;;;;;;;25.90;18.10;;;;;;;13.33;100.00;93638.28;5100009;28;20096;-75
2022/11/08 09:59:34;;;;;;;27.42;16.42;;;;;;;13.22;100.00;93634.63;5110342;28;20456;-75
2022/11/08 10:02:01;;;;;;;24.55;15.50;;;;;;;13.60;100.00;93643.94;5079657;28;20519;-75
2022/11/08 10:04:31;;;;;;;25.50;15.50;;;;;;;13.65;100.00;93622.63;5099683;28;20686;-74
2022/11/08 10:07:09;;;;;;;24.55;16.27;;;;;;;13.91;100.00;93636.22;5110597;28;20100;-75
2022/11/08 10:09:59;;;;;;;25.00;15.77;;;;;;;13.66;100.00;93636.34;5109661;28;20097;-75
2022/11/08 10:12:35;;;;;;;21.20;13.88;;;;;;;13.93;100.00;93638.56;5110047;28;20056;-75
2022/11/08 10:15:14;;;;;;;22.67;15.10;;;;;;;14.21;100.00;93644.94;5109963;28;20451;-75
2022/11/08 10:17:59;;;;;;;21.83;13.93;;;;;;;14.25;100.00;93638.31;5109678;28;20497;-75
2022/11/08 10:20:38;;;;;;;21.17;13.52;;;;;;;14.23;100.00;93641.13;5109953;28;20124;-75
2022/11/08 10:23:20;;;;;;;24.08;14.55;;;;;;;14.16;100.00;93643.81;5109502;28;20048;-75
2022/11/08 10:25:50;;;;;;;17.65;11.90;;;;;;;13.90;100.00;93634.63;5109831;28;20142;-75
2022/11/08 10:28:21;;;;;;;19.33;13.48;;;;;;;13.69;100.00;93628.94;5108673;28;20051;-75
2022/11/08 10:30:52;;;;;;;18.70;13.45;;;;;;;13.70;100.00;93622.00;5097300;28;20124;-75
2022/11/08 10:33:23;;;;;;;18.90;13.05;;;;;;;13.96;100.00;93612.28;5109484;28;20101;-75
2022/11/08 10:35:57;;;;;;;19.10;13.30;;;;;;;13.84;100.00;93607.88;5109496;28;20055;-75
2022/11/08 10:38:29;;;;;;;19.50;12.93;;;;;;;13.74;100.00;93605.84;5095424;28;20048;-74
2022/11/08 10:41:04;;;;;;;17.80;12.55;;;;;;;14.11;100.00;93620.44;5109882;28;20055;-75
2022/11/08 10:43:35;;;;;;;18.13;12.80;;;;;;;14.38;100.00;93617.44;5109663;28;20497;-75
2022/11/08 10:46:04;;;;;;;21.88;12.63;;;;;;;14.46;100.00;93618.91;5076942;28;20299;-75
2022/11/08 10:48:34;;;;;;;16.20;11.75;;;;;;;14.46;98.15;93607.78;5091015;28;20047;-75
2022/11/08 10:51:00;;;;;;;17.95;11.93;;;;;;;14.29;100.00;93617.00;5101621;28;20047;-75
2022/11/08 10:53:30;;;;;;;19.10;13.38;;;;;;;14.41;100.00;93611.81;5072721;28;20125;-75
2022/11/08 10:56:00;;;;;;;18.35;12.90;;;;;;;14.26;99.44;93612.25;5075271;28;20098;-74
2022/11/08 10:58:39;;;;;;;18.40;12.48;;;;;;;14.16;100.00;93609.41;5073019;28;20056;-75
2022/11/08 11:01:18;;;;;;;22.35;14.18;;;;;;;14.35;100.00;93606.78;5072059;28;20513;-75
2022/11/08 11:03:47;;;;;;;21.50;12.95;;;;;;;14.12;100.00;93596.16;5072314;28;20078;-75
2022/11/08 11:06:28;;;;;;;20.02;13.05;;;;;;;14.08;100.00;93597.63;5091916;28;20043;-75
2022/11/08 11:08:57;;;;;;;23.02;13.75;;;;;;;14.21;100.00;93599.22;5113368;28;20044;-75
2022/11/08 11:11:27;;;;;;;18.25;12.10;;;;;;;14.17;99.02;93603.28;5113171;28;20073;-75
2022/11/08 11:14:07;;;;;;;18.38;13.30;;;;;;;14.32;100.00;93576.19;5113310;28;20198;-75
2022/11/08 11:16:35;;;;;;;23.42;13.10;;;;;;;14.79;100.00;93585.78;5112851;28;20079;-75
2022/11/08 11:19:04;;;;;;;19.23;13.18;;;;;;;15.02;98.06;93595.31;5113146;28;20044;-75
2022/11/08 11:21:36;;;;;;;18.17;11.63;;;;;;;15.02;96.33;93589.34;5105415;28;20493;-75
2022/11/08 11:24:09;;;;;;;16.40;11.25;;;;;;;15.11;97.41;93585.41;5092463;28;20052;-75
2022/11/08 11:26:42;;;;;;;13.68;10.05;;;;;;;15.13;95.55;93587.78;5111327;28;20047;-75
2022/11/08 11:29:18;;;;;;;14.82;10.23;;;;;;;15.05;95.67;93588.91;5083291;28;20055;-75
2022/11/08 11:31:49;;;;;;;14.65;9.85;;;;;;;14.91;94.06;93601.31;5113137;28;20067;-74
2022/11/08 11:34:45;;;;;;;14.85;10.02;;;;;;;14.92;95.22;93595.91;5085514;27;20071;-75
2022/11/08 11:37:21;;;;;;;13.77;9.80;;;;;;;14.84;95.75;93593.66;5089661;28;20052;-75
2022/11/08 11:39:57;;;;;;;18.20;10.90;;;;;;;15.10;95.85;93587.19;5112341;28;20517;-75
2022/11/08 11:42:31;;;;;;;17.75;10.85;;;;;;;15.23;95.38;93582.81;5101418;28;20094;-75
2022/11/08 11:45:08;;;;;;;14.73;10.57;;;;;;;15.41;94.23;93576.66;5096648;28;20051;-75
2022/11/08 11:47:46;;;;;;;15.05;9.85;;;;;;;15.29;94.24;93576.72;5097928;28;20071;-75